Time;durP1;ratioP1;P1;durP2;ratioP2;P2;SDS_P1;SDS_P2;PMS_P1;PMS_P2;Temp;Humidity;BMP_temperature;BMP_pressure;BME280_temperature;BME280_humidity;BME280_pressure;Samples;Min_cycle;Max_cycle;Signal;HPM_P1;HPM_P2
2023/08/24 00:00:42;;;;;;;3.85;3.40;;;16.30;99.90;;;;;;5060385;28;20770;-56
2023/08/24 00:03:08;;;;;;;3.42;3.00;;;16.30;99.90;;;;;;5059062;28;20044;-57
2023/08/24 00:05:38;;;;;;;3.80;3.22;;;16.30;99.90;;;;;;5072354;28;20036;-56
2023/08/24 00:08:10;;;;;;;3.40;3.10;;;16.30;99.90;;;;;;5071992;28;20463;-57
2023/08/24 00:10:37;;;;;;;4.82;3.05;;;16.30;99.90;;;;;;5070818;28;20380;-55
2023/08/24 00:13:03;;;;;;;4.72;3.25;;;16.10;99.90;;;;;;5072121;28;20051;-56
2023/08/24 00:15:29;;;;;;;3.45;2.65;;;16.00;99.90;;;;;;5070076;28;20060;-56
2023/08/24 00:17:55;;;;;;;3.25;2.95;;;16.00;99.90;;;;;;5061900;28;20048;-56
2023/08/24 00:20:21;;;;;;;3.58;3.17;;;16.10;99.90;;;;;;5061079;28;20048;-56
2023/08/24 00:22:47;;;;;;;2.80;2.60;;;16.10;99.90;;;;;;5059497;28;20390;-55
2023/08/24 00:25:12;;;;;;;2.13;2.03;;;16.00;99.90;;;;;;5071985;28;20036;-56
2023/08/24 00:27:38;;;;;;;2.10;2.00;;;15.90;99.90;;;;;;5063153;28;20051;-56
2023/08/24 00:30:06;;;;;;;2.08;1.92;;;16.00;99.90;;;;;;5071722;28;20052;-56
2023/08/24 00:32:35;;;;;;;2.25;1.83;;;15.90;99.90;;;;;;5068548;28;20138;-56
2023/08/24 00:35:02;;;;;;;3.58;2.13;;;15.90;99.90;;;;;;5057337;28;20076;-56
2023/08/24 00:37:28;;;;;;;2.28;1.83;;;15.90;99.90;;;;;;5068964;28;20067;-56
2023/08/24 00:39:55;;;;;;;4.22;2.38;;;16.00;99.90;;;;;;5060890;28;20811;-56
2023/08/24 00:42:22;;;;;;;2.13;1.92;;;15.90;99.90;;;;;;5071764;28;20048;-55
2023/08/24 00:44:48;;;;;;;2.60;1.95;;;15.80;99.90;;;;;;5072164;28;20678;-56
2023/08/24 00:47:15;;;;;;;2.35;1.85;;;15.80;99.90;;;;;;5054753;28;20090;-56
2023/08/24 00:49:41;;;;;;;3.53;2.08;;;15.90;99.90;;;;;;5070593;28;20486;-55
2023/08/24 00:52:07;;;;;;;3.05;2.70;;;15.90;99.90;;;;;;5066894;28;20124;-56
2023/08/24 00:54:33;;;;;;;4.57;3.38;;;15.80;99.90;;;;;;5071608;28;20120;-56
2023/08/24 00:56:58;;;;;;;3.03;2.75;;;15.70;99.90;;;;;;5071833;28;20044;-56
2023/08/24 00:59:24;;;;;;;3.20;2.90;;;15.90;99.90;;;;;;5071738;28;20094;-56
2023/08/24 01:01:51;;;;;;;4.25;3.03;;;15.90;99.90;;;;;;5071484;28;20390;-55
2023/08/24 01:04:18;;;;;;;3.85;2.65;;;15.80;99.90;;;;;;5058612;28;20029;-55
2023/08/24 01:06:43;;;;;;;6.25;3.15;;;15.80;99.90;;;;;;5070256;28;20455;-55
2023/08/24 01:09:09;;;;;;;5.50;3.10;;;15.80;99.90;;;;;;5071537;28;20060;-56
2023/08/24 01:11:59;;;;;;;3.95;2.72;;;15.70;99.90;;;;;;5071156;28;20056;-55
2023/08/24 01:14:51;;;;;;;4.63;3.30;;;15.80;99.90;;;;;;5071281;28;20044;-57
2023/08/24 01:17:23;;;;;;;4.65;4.10;;;15.90;99.90;;;;;;5057437;28;20422;-57
2023/08/24 01:19:50;;;;;;;5.75;4.68;;;15.80;99.90;;;;;;5071185;28;20079;-57
2023/08/24 01:22:52;;;;;;;4.97;4.15;;;15.70;99.90;;;;;;5059892;28;20049;-57
2023/08/24 01:25:38;;;;;;;5.18;3.45;;;15.80;99.90;;;;;;5048799;28;20099;-57
2023/08/24 01:28:06;;;;;;;4.25;3.67;;;15.90;99.90;;;;;;5048978;28;20080;-57
2023/08/24 01:30:33;;;;;;;8.57;3.70;;;15.90;99.90;;;;;;5048626;28;20049;-58
2023/08/24 01:32:58;;;;;;;6.70;4.53;;;15.90;99.90;;;;;;5032430;28;20053;-57
2023/08/24 01:35:24;;;;;;;6.28;4.30;;;15.90;99.90;;;;;;5032111;28;20056;-58
2023/08/24 01:37:50;;;;;;;6.35;3.72;;;15.90;99.90;;;;;;5049019;28;20045;-57
2023/08/24 01:40:26;;;;;;;6.68;4.38;;;15.90;99.90;;;;;;5048904;28;20405;-57
2023/08/24 01:42:56;;;;;;;7.65;4.38;;;15.80;99.90;;;;;;5048950;28;20049;-57
2023/08/24 01:45:27;;;;;;;4.88;4.15;;;16.00;99.90;;;;;;5045871;28;20049;-57
2023/08/24 01:47:54;;;;;;;7.97;4.45;;;15.90;99.90;;;;;;5036598;28;20124;-57
2023/08/24 01:50:21;;;;;;;8.85;3.88;;;15.90;99.90;;;;;;5049994;28;20083;-57
2023/08/24 01:52:46;;;;;;;5.63;4.15;;;15.90;99.90;;;;;;5049994;28;20124;-58
2023/08/24 01:55:13;;;;;;;8.55;4.47;;;15.90;99.90;;;;;;5052328;28;20136;-56
2023/08/24 01:57:38;;;;;;;7.93;4.03;;;15.90;99.90;;;;;;5052221;28;20069;-57
2023/08/24 02:00:06;;;;;;;7.38;4.47;;;16.00;99.90;;;;;;5052311;28;20080;-57
2023/08/24 02:02:34;;;;;;;9.98;3.78;;;16.00;99.90;;;;;;5038575;28;20055;-58
2023/08/24 02:05:00;;;;;;;5.90;3.60;;;15.90;99.90;;;;;;5074617;28;20054;-56
2023/08/24 02:07:25;;;;;;;5.35;3.90;;;15.80;99.90;;;;;;5074619;28;20044;-57
2023/08/24 02:09:51;;;;;;;9.90;3.42;;;16.00;99.90;;;;;;5074316;28;20820;-56
2023/08/24 02:12:16;;;;;;;5.68;3.90;;;16.00;99.90;;;;;;5074541;28;20033;-56
2023/08/24 02:14:42;;;;;;;6.30;3.30;;;16.10;99.90;;;;;;5074160;28;20041;-56
2023/08/24 02:17:08;;;;;;;6.40;4.20;;;16.00;99.90;;;;;;5074115;28;20078;-57
2023/08/24 02:19:34;;;;;;;10.63;4.18;;;16.10;99.90;;;;;;5072744;28;20040;-56
2023/08/24 02:21:59;;;;;;;9.32;4.22;;;16.00;99.90;;;;;;5074099;28;20109;-56
2023/08/24 02:24:25;;;;;;;5.60;4.25;;;16.00;99.90;;;;;;5074221;28;20036;-56
2023/08/24 02:26:51;;;;;;;8.35;4.40;;;16.10;99.90;;;;;;5073983;28;20417;-56
2023/08/24 02:29:16;;;;;;;6.80;4.25;;;16.00;99.90;;;;;;5073966;28;20041;-56
2023/08/24 02:31:42;;;;;;;5.60;3.25;;;16.00;99.90;;;;;;5073342;28;20407;-56
2023/08/24 02:34:07;;;;;;;5.80;3.35;;;16.20;99.90;;;;;;5072594;28;20036;-56
2023/08/24 02:36:33;;;;;;;8.45;3.60;;;16.10;99.90;;;;;;5073842;28;20453;-57
2023/08/24 02:39:00;;;;;;;5.50;4.05;;;16.10;99.90;;;;;;5073547;28;20037;-56
2023/08/24 02:41:27;;;;;;;8.70;3.05;;;16.20;99.90;;;;;;5073731;28;20051;-56
2023/08/24 02:43:52;;;;;;;6.53;3.33;;;16.20;99.90;;;;;;5073353;28;20082;-56
2023/08/24 02:46:18;;;;;;;4.88;3.90;;;16.30;99.90;;;;;;5073893;28;20064;-56
2023/08/24 02:48:44;;;;;;;6.57;3.53;;;16.30;99.90;;;;;;5073530;28;20048;-56
2023/08/24 02:51:10;;;;;;;5.47;3.45;;;16.30;99.90;;;;;;5073755;28;20041;-56
2023/08/24 02:53:36;;;;;;;32.13;4.63;;;16.30;99.90;;;;;;5073744;28;20151;-57
2023/08/24 02:56:02;;;;;;;7.32;3.83;;;16.40;99.90;;;;;;5073406;28;20471;-57
2023/08/24 02:58:29;;;;;;;7.90;4.22;;;16.40;99.90;;;;;;5072973;28;20043;-56
2023/08/24 03:00:55;;;;;;;7.35;4.45;;;16.40;99.90;;;;;;5073026;28;20098;-57
2023/08/24 03:03:21;;;;;;;5.03;3.83;;;16.40;99.90;;;;;;5073276;28;20036;-57
2023/08/24 03:06:01;;;;;;;30.70;4.47;;;16.40;99.90;;;;;;5073348;28;20375;-56
2023/08/24 03:08:28;;;;;;;10.20;4.20;;;16.40;99.90;;;;;;5049224;28;20112;-56
2023/08/24 03:10:53;;;;;;;7.63;4.18;;;16.40;99.90;;;;;;5073097;28;20048;-57
2023/08/24 03:13:19;;;;;;;12.25;6.00;;;16.50;99.90;;;;;;5073179;28;20446;-57
2023/08/24 03:15:45;;;;;;;8.27;5.00;;;16.40;99.90;;;;;;5073181;28;20499;-57
2023/08/24 03:18:15;;;;;;;8.32;5.07;;;16.40;99.90;;;;;;5072937;28;20097;-58
2023/08/24 03:20:41;;;;;;;13.02;5.80;;;16.40;99.90;;;;;;5073140;28;20071;-57
2023/08/24 03:23:07;;;;;;;10.68;6.38;;;16.50;99.90;;;;;;5071311;28;20085;-57
2023/08/24 03:25:37;;;;;;;17.25;7.70;;;16.50;99.90;;;;;;5072898;28;20033;-57
2023/08/24 03:28:03;;;;;;;7.47;5.65;;;16.50;99.90;;;;;;5071370;28;20067;-57
2023/08/24 03:30:29;;;;;;;11.82;6.15;;;16.50;99.90;;;;;;5072601;28;20039;-57
2023/08/24 03:32:54;;;;;;;10.88;6.47;;;16.40;99.90;;;;;;5072737;28;20053;-57
2023/08/24 03:35:20;;;;;;;9.85;6.93;;;16.50;99.90;;;;;;5072434;28;20032;-57
2023/08/24 03:37:46;;;;;;;11.98;7.05;;;16.40;99.90;;;;;;5072382;28;20109;-57
2023/08/24 03:40:12;;;;;;;13.65;6.78;;;16.40;99.90;;;;;;5072514;28;20044;-57
2023/08/24 03:42:38;;;;;;;10.98;6.32;;;16.40;99.90;;;;;;5072303;28;20036;-57
2023/08/24 03:45:04;;;;;;;12.35;7.63;;;16.40;99.90;;;;;;5072620;28;20055;-57
2023/08/24 03:47:30;;;;;;;9.82;6.97;;;16.40;99.90;;;;;;5070874;28;20059;-57
2023/08/24 03:49:56;;;;;;;11.32;5.78;;;16.40;99.90;;;;;;5072472;28;20041;-57
2023/08/24 03:52:21;;;;;;;8.32;4.65;;;16.40;99.90;;;;;;5072370;28;20040;-57
2023/08/24 03:54:47;;;;;;;8.52;4.20;;;16.40;99.90;;;;;;5072232;28;20037;-57
2023/08/24 03:57:14;;;;;;;5.88;3.70;;;16.40;99.90;;;;;;5072318;28;20123;-57
2023/08/24 03:59:39;;;;;;;13.25;4.22;;;16.40;99.90;;;;;;5070803;28;20032;-58
2023/08/24 04:02:06;;;;;;;9.77;4.03;;;16.40;99.90;;;;;;5072218;28;20490;-57
2023/08/24 04:04:31;;;;;;;7.82;4.38;;;16.30;99.90;;;;;;5071992;28;20037;-57
2023/08/24 04:06:57;;;;;;;6.15;4.00;;;16.30;99.90;;;;;;5071973;28;20040;-57
2023/08/24 04:09:23;;;;;;;12.50;5.85;;;16.20;99.90;;;;;;5071723;28;20043;-57
2023/08/24 04:11:49;;;;;;;6.47;4.43;;;16.20;99.90;;;;;;5071629;28;20032;-57
2023/08/24 04:14:14;;;;;;;7.72;4.97;;;16.20;99.90;;;;;;5071859;28;20142;-57
2023/08/24 04:16:41;;;;;;;7.53;4.30;;;16.20;99.90;;;;;;5071974;28;20032;-57
2023/08/24 04:19:07;;;;;;;11.18;4.97;;;16.20;99.90;;;;;;5072133;28;20032;-57
2023/08/24 04:21:33;;;;;;;12.68;5.20;;;16.20;99.90;;;;;;5070479;28;20051;-57
2023/08/24 04:23:59;;;;;;;6.40;4.68;;;16.20;99.90;;;;;;5071853;28;20072;-57
2023/08/24 04:26:24;;;;;;;14.27;5.07;;;16.10;99.90;;;;;;5071573;28;20368;-56
2023/08/24 04:28:50;;;;;;;8.35;4.88;;;16.10;99.90;;;;;;5071691;28;20398;-57
2023/08/24 04:31:16;;;;;;;7.78;4.70;;;16.10;99.90;;;;;;5071848;28;20057;-56
2023/08/24 04:33:41;;;;;;;13.82;6.30;;;16.10;99.90;;;;;;5070981;28;20142;-56
2023/08/24 04:36:07;;;;;;;10.27;5.95;;;16.10;99.90;;;;;;5072105;28;20364;-57
2023/08/24 04:38:32;;;;;;;11.90;5.85;;;16.10;99.90;;;;;;5072150;28;20375;-56
2023/08/24 04:40:58;;;;;;;10.85;6.30;;;16.10;99.90;;;;;;5066377;28;20049;-56
2023/08/24 04:43:24;;;;;;;9.13;5.30;;;16.10;99.90;;;;;;5063382;28;20052;-56
2023/08/24 04:45:52;;;;;;;10.50;5.70;;;16.20;99.90;;;;;;5061132;28;20546;-57
2023/08/24 04:48:23;;;;;;;9.38;6.15;;;16.10;99.90;;;;;;5058710;28;20036;-56
2023/08/24 04:50:49;;;;;;;9.02;5.10;;;16.10;99.90;;;;;;5070099;28;20044;-55
2023/08/24 04:53:19;;;;;;;13.57;6.40;;;16.20;99.90;;;;;;5060427;28;20098;-56
2023/08/24 04:55:45;;;;;;;12.20;5.40;;;16.10;99.90;;;;;;5070176;28;20055;-56
2023/08/24 04:58:13;;;;;;;9.50;5.75;;;16.20;99.90;;;;;;5057337;28;20033;-55
2023/08/24 05:00:39;;;;;;;10.40;6.07;;;16.20;99.90;;;;;;5065600;28;20147;-55
2023/08/24 05:03:06;;;;;;;9.15;5.25;;;16.20;99.90;;;;;;5071561;28;20037;-55
2023/08/24 05:05:33;;;;;;;9.70;5.10;;;16.20;99.90;;;;;;5071778;28;20399;-56
2023/08/24 05:08:00;;;;;;;9.50;5.75;;;16.30;99.90;;;;;;5070316;28;20037;-56
2023/08/24 05:10:29;;;;;;;11.80;5.93;;;16.30;99.90;;;;;;5071790;28;20043;-55
2023/08/24 05:12:55;;;;;;;8.57;5.28;;;16.30;99.90;;;;;;5070552;28;20056;-56
2023/08/24 05:15:20;;;;;;;14.98;5.97;;;16.40;99.90;;;;;;5064487;28;20029;-56
2023/08/24 05:17:46;;;;;;;8.98;4.93;;;16.50;99.90;;;;;;5066135;28;20068;-56
2023/08/24 05:20:12;;;;;;;14.85;5.22;;;16.50;99.90;;;;;;5065895;28;20068;-56
2023/08/24 05:22:41;;;;;;;14.52;5.03;;;16.60;99.90;;;;;;5064672;28;20053;-56
2023/08/24 05:25:07;;;;;;;9.98;5.00;;;16.60;99.90;;;;;;5073769;28;20043;-56
2023/08/24 05:27:32;;;;;;;15.40;6.32;;;16.60;99.90;;;;;;5075341;28;20162;-56
2023/08/24 05:29:58;;;;;;;14.75;5.40;;;16.60;99.90;;;;;;5075005;28;20108;-55
2023/08/24 05:32:24;;;;;;;11.50;5.28;;;16.60;99.90;;;;;;5074904;28;20141;-56
2023/08/24 05:34:50;;;;;;;10.40;5.30;;;16.60;99.90;;;;;;5074885;28;20044;-56
2023/08/24 05:37:16;;;;;;;13.93;5.68;;;16.60;99.90;;;;;;5074741;28;20074;-56
2023/08/24 05:39:42;;;;;;;18.15;6.20;;;16.70;99.90;;;;;;5075133;28;20040;-56
2023/08/24 05:42:08;;;;;;;15.57;5.93;;;16.70;99.90;;;;;;5074771;28;20377;-56
2023/08/24 05:44:34;;;;;;;17.83;5.88;;;16.70;99.90;;;;;;5073179;28;20038;-55
2023/08/24 05:47:00;;;;;;;14.25;6.35;;;16.70;99.90;;;;;;5068050;28;20032;-55
2023/08/24 05:49:25;;;;;;;13.18;6.20;;;16.70;99.90;;;;;;5074684;28;20157;-56
2023/08/24 05:51:52;;;;;;;13.77;6.57;;;16.80;99.90;;;;;;5061268;28;20028;-55
2023/08/24 05:54:18;;;;;;;15.57;7.82;;;16.90;99.90;;;;;;5071657;28;20029;-56
2023/08/24 05:56:47;;;;;;;16.15;6.90;;;17.00;99.90;;;;;;5072699;28;20076;-56
2023/08/24 05:59:14;;;;;;;13.48;7.10;;;17.10;99.90;;;;;;5070527;28;20068;-56
2023/08/24 06:01:41;;;;;;;13.20;7.47;;;17.20;99.90;;;;;;5074736;28;20115;-55
2023/08/24 06:04:08;;;;;;;11.52;7.25;;;17.30;99.90;;;;;;5074618;28;20036;-56
2023/08/24 06:06:35;;;;;;;13.70;6.57;;;17.50;99.90;;;;;;5074374;28;20036;-56
2023/08/24 06:09:00;;;;;;;11.55;6.53;;;17.60;99.90;;;;;;5074589;28;20043;-56
2023/08/24 06:11:26;;;;;;;16.00;6.38;;;17.60;99.90;;;;;;5074157;28;20032;-56
2023/08/24 06:13:53;;;;;;;12.82;6.22;;;17.80;99.90;;;;;;5074600;28;20037;-56
2023/08/24 06:16:19;;;;;;;10.93;6.57;;;17.90;99.90;;;;;;5060580;28;20039;-56
2023/08/24 06:18:45;;;;;;;10.82;5.80;;;18.10;99.90;;;;;;5074293;28;20090;-55
2023/08/24 06:21:11;;;;;;;13.43;5.53;;;18.00;99.90;;;;;;5046389;28;20044;-56
2023/08/24 06:23:38;;;;;;;12.13;5.18;;;18.10;99.90;;;;;;5074494;28;20048;-56
2023/08/24 06:26:04;;;;;;;8.52;4.95;;;18.20;99.90;;;;;;5074674;28;20040;-56
2023/08/24 06:28:31;;;;;;;14.25;5.22;;;18.30;99.90;;;;;;5074650;28;20052;-56
2023/08/24 06:30:57;;;;;;;10.15;4.60;;;18.50;99.90;;;;;;5074095;28;20110;-56
2023/08/24 06:33:33;;;;;;;9.57;5.03;;;18.70;99.90;;;;;;5072293;28;20083;-57
2023/08/24 06:35:59;;;;;;;8.77;4.25;;;18.80;99.90;;;;;;5073738;28;20040;-56
2023/08/24 06:38:25;;;;;;;8.38;3.92;;;19.00;99.90;;;;;;5074275;28;20090;-56
2023/08/24 06:40:51;;;;;;;7.43;3.80;;;19.20;99.90;;;;;;5074025;28;20032;-56
2023/08/24 06:43:17;;;;;;;4.95;3.20;;;19.20;99.90;;;;;;5073902;28;20048;-56
2023/08/24 06:45:44;;;;;;;6.00;3.50;;;19.40;99.90;;;;;;5069590;28;20048;-56
2023/08/24 06:48:09;;;;;;;12.95;4.28;;;19.60;99.90;;;;;;5074078;28;20040;-56
2023/08/24 06:50:36;;;;;;;7.03;3.35;;;19.80;99.90;;;;;;5069083;28;20040;-56
2023/08/24 06:53:03;;;;;;;6.95;2.80;;;20.00;99.90;;;;;;5066364;28;20494;-56
2023/08/24 06:55:29;;;;;;;8.05;2.92;;;20.20;99.90;;;;;;5073586;28;20380;-56
2023/08/24 06:57:55;;;;;;;8.18;3.22;;;20.40;99.90;;;;;;5074040;28;20047;-56
2023/08/24 07:00:20;;;;;;;7.85;2.50;;;20.50;99.90;;;;;;5073456;28;20039;-56
2023/08/24 07:02:49;;;;;;;6.50;2.33;;;20.80;99.90;;;;;;5073691;28;20470;-56
2023/08/24 07:05:18;;;;;;;8.20;3.65;;;21.10;99.90;;;;;;5073631;28;20076;-56
2023/08/24 07:07:45;;;;;;;6.28;2.70;;;21.50;99.90;;;;;;5073414;28;20364;-56
2023/08/24 07:10:11;;;;;;;5.03;2.10;;;21.60;99.90;;;;;;5073076;28;20040;-57
2023/08/24 07:12:40;;;;;;;6.75;2.53;;;21.60;99.90;;;;;;5073409;28;20058;-56
2023/08/24 07:15:06;;;;;;;;;;;21.70;99.90;;;;;;5064184;28;20567;-56
2023/08/24 07:17:32;;;;;;;8.27;2.92;;;21.90;99.90;;;;;;5072810;28;19981;-57
2023/08/24 07:19:57;;;;;;;7.07;2.35;;;22.00;99.90;;;;;;5073460;28;20482;-56
2023/08/24 07:22:23;;;;;;;4.75;2.35;;;22.20;99.90;;;;;;5073057;28;20090;-57
2023/08/24 07:24:52;;;;;;;9.23;2.38;;;22.20;99.90;;;;;;5073337;28;20032;-56
2023/08/24 07:27:18;;;;;;;8.18;2.22;;;22.30;99.90;;;;;;5073145;28;20098;-57
2023/08/24 07:29:44;;;;;;;7.53;2.42;;;22.50;99.90;;;;;;5071736;28;20046;-56
2023/08/24 07:32:10;;;;;;;4.53;2.33;;;22.90;99.90;;;;;;5068655;28;20066;-56
2023/08/24 07:34:35;;;;;;;5.20;1.90;;;22.70;99.90;;;;;;5071935;28;20048;-57
2023/08/24 07:37:01;;;;;;;9.68;2.38;;;23.10;99.90;;;;;;5072691;28;20480;-56
2023/08/24 07:39:27;;;;;;;5.32;2.40;;;23.20;99.90;;;;;;5073100;28;20048;-57
2023/08/24 07:41:53;;;;;;;8.20;1.88;;;23.50;99.90;;;;;;5072660;28;20390;-57
2023/08/24 07:44:18;;;;;;;6.63;2.45;;;23.80;99.90;;;;;;5069291;28;20025;-57
2023/08/24 07:46:44;;;;;;;5.70;2.17;;;24.00;99.90;;;;;;5064503;28;20040;-56
2023/08/24 07:49:10;;;;;;;5.38;2.30;;;24.00;99.90;;;;;;5072690;28;20043;-56
2023/08/24 07:51:36;;;;;;;5.30;2.80;;;24.30;99.90;;;;;;5072726;28;20044;-57
2023/08/24 07:54:04;;;;;;;7.97;2.90;;;24.20;99.90;;;;;;5072432;28;20044;-57
2023/08/24 07:56:29;;;;;;;9.35;3.40;;;24.40;99.90;;;;;;5071542;28;20083;-57
2023/08/24 07:58:55;;;;;;;5.78;2.85;;;24.50;99.90;;;;;;5072320;28;20122;-57
2023/08/24 08:01:21;;;;;;;6.00;2.53;;;24.70;99.90;;;;;;5071172;28;20033;-58
2023/08/24 08:03:46;;;;;;;9.30;3.00;;;25.20;99.90;;;;;;5072418;28;20040;-58
2023/08/24 08:06:13;;;;;;;5.90;2.35;;;25.20;99.90;;;;;;5068473;28;20040;-57
2023/08/24 08:08:39;;;;;;;8.27;3.85;;;25.40;99.90;;;;;;5054778;28;20032;-58
2023/08/24 08:11:05;;;;;;;9.70;3.80;;;25.40;99.90;;;;;;5069003;28;20098;-57
2023/08/24 08:13:30;;;;;;;9.75;3.30;;;25.20;99.90;;;;;;5062641;28;20063;-57
2023/08/24 08:16:06;;;;;;;6.38;3.40;;;25.30;99.90;;;;;;5069566;28;20155;-57
2023/08/24 08:18:33;;;;;;;5.10;3.60;;;25.60;99.90;;;;;;5062701;28;20158;-57
2023/08/24 08:20:58;;;;;;;6.22;3.60;;;25.90;99.90;;;;;;5072251;28;20068;-58
2023/08/24 08:23:26;;;;;;;6.70;3.45;;;26.00;99.90;;;;;;5068939;28;20482;-58
2023/08/24 08:25:51;;;;;;;4.85;3.30;;;25.90;99.90;;;;;;5064546;28;20028;-58
2023/08/24 08:28:18;;;;;;;6.18;3.08;;;26.20;99.90;;;;;;5071807;28;20081;-58
2023/08/24 08:30:44;;;;;;;7.47;3.80;;;26.50;99.90;;;;;;5071062;28;20394;-58
2023/08/24 08:33:12;;;;;;;8.32;3.85;;;26.30;99.90;;;;;;5072330;28;20048;-58
2023/08/24 08:35:40;;;;;;;7.50;3.17;;;26.20;99.90;;;;;;5072169;28;20045;-58
2023/08/24 08:38:07;;;;;;;16.37;3.30;;;26.70;99.90;;;;;;5070878;28;20059;-58
2023/08/24 08:40:36;;;;;;;7.17;3.40;;;26.60;99.90;;;;;;5072007;28;20055;-57
2023/08/24 08:43:03;;;;;;;9.60;4.05;;;26.60;99.90;;;;;;5071853;28;20123;-57
2023/08/24 08:45:29;;;;;;;9.02;3.50;;;26.50;99.90;;;;;;5061469;28;20040;-58
2023/08/24 08:47:59;;;;;;;13.20;4.95;;;26.40;99.90;;;;;;5072129;28;20040;-57
2023/08/24 08:50:25;;;;;;;12.02;4.68;;;26.20;99.90;;;;;;5071921;28;20386;-57
2023/08/24 08:52:51;;;;;;;7.72;4.05;;;26.40;99.90;;;;;;5071949;28;20068;-57
2023/08/24 08:55:18;;;;;;;9.07;3.95;;;26.70;99.90;;;;;;5071818;28;20450;-57
2023/08/24 08:57:45;;;;;;;11.32;4.43;;;26.60;99.90;;;;;;5074404;28;20087;-57
2023/08/24 09:00:14;;;;;;;12.02;4.07;;;26.70;99.90;;;;;;5076056;28;20032;-57
2023/08/24 09:02:44;;;;;;;7.97;4.82;;;26.80;99.90;;;;;;5075698;28;20037;-57
2023/08/24 09:05:11;;;;;;;9.32;4.60;;;26.50;99.90;;;;;;5075983;28;20047;-58
2023/08/24 09:07:39;;;;;;;6.40;3.78;;;26.00;99.90;;;;;;5075659;28;20064;-57
2023/08/24 09:10:07;;;;;;;7.40;3.70;;;25.70;99.90;;;;;;5075778;28;20044;-57
2023/08/24 09:12:33;;;;;;;8.25;4.28;;;25.80;99.90;;;;;;5075275;28;20478;-58
2023/08/24 09:14:59;;;;;;;6.35;4.18;;;25.50;99.90;;;;;;5071718;28;20078;-58
2023/08/24 09:17:25;;;;;;;7.82;3.95;;;25.30;99.90;;;;;;5074188;28;20068;-58
2023/08/24 09:19:53;;;;;;;7.00;3.70;;;25.20;99.90;;;;;;5071361;28;20032;-58
2023/08/24 09:22:19;;;;;;;5.32;3.65;;;25.20;99.90;;;;;;5075249;28;20083;-58
2023/08/24 09:24:45;;;;;;;5.35;4.35;;;25.20;99.90;;;;;;5075533;28;20064;-58
2023/08/24 09:27:18;;;;;;;6.32;3.72;;;24.90;99.90;;;;;;5075262;28;20048;-57
2023/08/24 09:29:49;;;;;;;9.73;4.20;;;24.90;99.90;;;;;;5063170;28;20040;-57
2023/08/24 09:32:15;;;;;;;9.65;4.32;;;24.90;99.90;;;;;;5075032;28;20110;-58
2023/08/24 09:34:41;;;;;;;10.75;4.60;;;24.70;99.90;;;;;;5071595;28;20037;-58
2023/08/24 09:37:15;;;;;;;7.68;4.55;;;24.50;99.90;;;;;;5074745;28;20055;-58
2023/08/24 09:39:41;;;;;;;9.18;4.55;;;24.50;99.90;;;;;;5075351;28;20040;-58
2023/08/24 09:42:07;;;;;;;7.20;4.32;;;24.20;99.90;;;;;;5073616;28;20119;-58
2023/08/24 09:44:32;;;;;;;9.27;4.47;;;24.10;99.90;;;;;;5074491;28;20173;-58
2023/08/24 09:46:59;;;;;;;7.68;4.55;;;24.10;99.90;;;;;;5074981;28;20386;-57
2023/08/24 09:49:26;;;;;;;6.97;4.57;;;24.00;99.90;;;;;;5074873;28;20028;-57
2023/08/24 09:51:57;;;;;;;8.70;4.13;;;23.80;99.90;;;;;;5074781;28;20046;-57
2023/08/24 09:54:27;;;;;;;10.52;4.65;;;23.80;99.90;;;;;;5074790;28;20089;-57
2023/08/24 09:56:56;;;;;;;9.25;4.35;;;23.60;99.90;;;;;;5074656;28;20536;-56
2023/08/24 09:59:24;;;;;;;9.45;4.90;;;23.50;99.90;;;;;;5074489;28;20032;-58
2023/08/24 10:01:50;;;;;;;;;;;23.50;99.90;;;;;;5075288;28;20044;-58
2023/08/24 10:04:28;;;;;;;10.98;4.70;;;23.40;99.90;;;;;;5074320;28;19920;-57
2023/08/24 10:07:06;;;;;;;8.85;4.70;;;23.40;99.90;;;;;;5075000;28;20045;-57
2023/08/24 10:09:38;;;;;;;8.20;4.88;;;23.40;99.90;;;;;;5073530;28;20072;-58
2023/08/24 10:12:05;;;;;;;8.35;4.10;;;23.40;99.90;;;;;;5074414;28;20040;-58
2023/08/24 10:14:38;;;;;;;9.27;4.15;;;23.40;99.90;;;;;;5067421;28;20041;-57
2023/08/24 10:17:04;;;;;;;9.65;4.50;;;23.40;99.90;;;;;;5074704;28;20123;-57
2023/08/24 10:19:30;;;;;;;8.90;4.68;;;23.40;99.90;;;;;;5073356;28;20151;-58
2023/08/24 10:21:59;;;;;;;7.25;4.32;;;23.40;99.90;;;;;;5074133;28;20554;-57
2023/08/24 10:24:26;;;;;;;9.40;5.57;;;23.20;99.90;;;;;;5074363;28;20036;-57
2023/08/24 10:26:54;;;;;;;11.75;4.72;;;23.20;99.90;;;;;;5074073;28;20028;-57
2023/08/24 10:29:20;;;;;;;11.88;5.75;;;23.30;99.90;;;;;;5073184;28;20089;-57
2023/08/24 10:31:48;;;;;;;8.73;6.03;;;23.20;99.90;;;;;;5073987;28;20071;-58
2023/08/24 10:34:14;;;;;;;11.23;5.53;;;23.10;99.90;;;;;;5073828;28;20538;-57
2023/08/24 10:36:40;;;;;;;9.95;6.43;;;23.00;99.90;;;;;;5074142;28;20120;-57
2023/08/24 10:39:06;;;;;;;6.60;5.03;;;22.80;99.90;;;;;;5072799;28;20811;-57
2023/08/24 10:41:52;;;;;;;13.80;6.00;;;22.90;99.90;;;;;;5073835;28;20036;-58
2023/08/24 10:44:37;;;;;;;10.30;5.80;;;22.90;99.90;;;;;;5073680;28;20044;-58
2023/08/24 10:47:12;;;;;;;9.68;5.70;;;22.80;99.90;;;;;;5074023;28;20387;-57
2023/08/24 10:49:38;;;;;;;13.32;5.68;;;22.70;99.90;;;;;;5073619;28;20394;-57
2023/08/24 10:52:30;;;;;;;7.57;5.57;;;22.70;99.90;;;;;;5073730;28;20044;-57
2023/08/24 10:54:56;;;;;;;10.50;5.85;;;22.70;99.90;;;;;;5073386;28;20044;-57
2023/08/24 10:57:27;;;;;;;8.60;6.10;;;22.60;99.90;;;;;;5048827;28;20037;-57
2023/08/24 11:00:05;;;;;;;9.38;6.05;;;22.50;99.90;;;;;;5057674;28;20344;-58
2023/08/24 11:02:41;;;;;;;9.57;5.95;;;22.50;99.90;;;;;;5073451;28;20040;-57
2023/08/24 11:05:31;;;;;;;12.25;6.22;;;22.40;99.90;;;;;;5072405;28;20120;-57
2023/08/24 11:08:03;;;;;;;10.15;6.18;;;22.50;99.90;;;;;;5048271;28;20063;-57
2023/08/24 11:10:41;;;;;;;8.48;6.10;;;22.40;99.90;;;;;;5073563;28;20378;-57
2023/08/24 11:13:11;;;;;;;7.03;5.82;;;22.50;99.90;;;;;;5073027;28;20165;-57
2023/08/24 11:15:40;;;;;;;18.67;7.07;;;22.50;99.90;;;;;;5065284;28;20128;-57
2023/08/24 11:18:27;;;;;;;13.40;6.20;;;22.40;99.90;;;;;;5073026;28;20048;-57
2023/08/24 11:20:55;;;;;;;9.65;6.30;;;22.40;99.90;;;;;;5064461;28;20119;-57
2023/08/24 11:23:22;;;;;;;8.05;6.13;;;22.40;99.90;;;;;;5072785;28;20111;-57
2023/08/24 11:25:51;;;;;;;12.40;6.57;;;22.40;99.90;;;;;;5073242;28;20048;-57
2023/08/24 11:28:19;;;;;;;10.98;6.72;;;22.40;99.90;;;;;;5072946;28;20062;-57
2023/08/24 11:30:46;;;;;;;11.60;7.22;;;22.40;99.90;;;;;;5072478;28;20083;-57
2023/08/24 11:33:13;;;;;;;11.52;7.32;;;22.40;99.90;;;;;;5072685;28;20486;-57
2023/08/24 11:35:42;;;;;;;8.80;7.00;;;22.40;99.90;;;;;;5072716;28;20044;-57
2023/08/24 11:38:08;;;;;;;10.15;7.43;;;22.40;99.90;;;;;;5064129;28;20105;-57
2023/08/24 11:40:33;;;;;;;11.82;7.07;;;22.50;99.90;;;;;;5072707;28;20479;-57
2023/08/24 11:42:59;;;;;;;9.07;6.78;;;22.50;99.90;;;;;;5072713;28;20040;-57
2023/08/24 11:45:32;;;;;;;9.27;7.15;;;22.50;99.90;;;;;;5055924;28;20192;-57
2023/08/24 11:48:02;;;;;;;11.93;7.78;;;22.60;99.90;;;;;;5072438;28;20406;-57
2023/08/24 11:50:28;;;;;;;11.05;7.40;;;22.60;99.90;;;;;;5065335;28;20048;-57
2023/08/24 11:52:54;;;;;;;12.80;7.40;;;22.70;99.90;;;;;;5072303;28;20043;-57
2023/08/24 11:55:22;;;;;;;9.73;6.95;;;22.80;99.90;;;;;;5072309;28;20037;-57
2023/08/24 11:57:48;;;;;;;;;;;22.80;99.90;;;;;;5072931;28;20090;-57
2023/08/24 12:00:16;;;;;;;14.35;6.97;;;22.80;99.90;;;;;;5072465;28;19916;-57
2023/08/24 12:02:42;;;;;;;7.97;7.07;;;22.80;99.90;;;;;;5071453;28;20120;-59
2023/08/24 12:05:19;;;;;;;14.40;7.22;;;22.90;99.90;;;;;;5072584;28;20494;-59
2023/08/24 12:07:45;;;;;;;14.93;6.72;;;22.90;99.90;;;;;;5072779;28;20111;-59
2023/08/24 12:10:12;;;;;;;15.30;8.30;;;23.00;99.90;;;;;;5072620;28;20037;-60
2023/08/24 12:12:38;;;;;;;14.50;7.93;;;23.00;99.90;;;;;;5072562;28;20040;-59
2023/08/24 12:15:05;;;;;;;8.57;7.25;;;22.90;99.90;;;;;;5064432;28;20047;-58
2023/08/24 12:17:41;;;;;;;10.30;6.72;;;23.00;99.90;;;;;;5072045;28;20103;-59
2023/08/24 12:20:12;;;;;;;13.65;7.18;;;23.00;99.90;;;;;;5072241;28;20475;-58
2023/08/24 12:22:38;;;;;;;9.30;6.80;;;23.00;99.90;;;;;;5064381;28;20048;-59
2023/08/24 12:25:05;;;;;;;10.00;7.18;;;23.00;99.90;;;;;;5071811;28;20033;-59
2023/08/24 12:27:31;;;;;;;11.98;7.60;;;23.00;99.90;;;;;;5072308;28;20047;-58
2023/08/24 12:30:01;;;;;;;15.75;7.45;;;23.00;99.90;;;;;;5072500;28;20029;-59
2023/08/24 12:32:46;;;;;;;14.27;7.60;;;23.00;99.90;;;;;;5071525;28;20048;-59
2023/08/24 12:35:14;;;;;;;12.15;7.65;;;23.00;99.90;;;;;;5072292;28;20123;-58
2023/08/24 12:37:39;;;;;;;12.10;7.15;;;23.00;99.90;;;;;;5043908;28;20115;-59
2023/08/24 12:40:06;;;;;;;13.57;8.05;;;23.00;99.90;;;;;;5072113;28;20166;-59
2023/08/24 12:42:32;;;;;;;10.98;7.32;;;23.00;99.90;;;;;;5072065;28;20047;-59
2023/08/24 12:44:58;;;;;;;13.93;7.43;;;23.00;99.90;;;;;;5067154;28;20041;-59